King's Park, China
Current Conditions -  °F | °C
As of 12:30 AM on Saturday 20 Dec 2014 (Local Time) from VHHH Reporting Station
Light Rain Light Rain  
Wind Chill: 55°   Ceiling: Unl
Heat Index: 55°   Visibility: 6mi
Dew Point: 45°   Wind: 14mph
Humidity: 67%   Direction: 50°NE
Pressure: 30.21"   Gusts: NA
Location:  22.32°N, 114.17°E
Report Text: VHHH 191630Z 05012KT 9999 -RA FEW015 SCT035 13/07 Q1023 NOSIG
Loading
Personal Weather Stations






























Interactive Weather Map New forecast layout! Learn more

10-Day Weather Forecast

Advertisements
Track Severe Weather on mobile